CheckWX is a tool to help pilots better visualize weather data.  It is not intended as a substitute for an official pre-flight weather briefing.

03:41:00 UTC

EKBI TAF
Billund Airport
Billund, Denmark
TAF AMD EKBI 270004Z 2700/2724 25010KT 9999 BKN012 TEMPO 2700/2706 2000 BR OVC004 BECMG 2706/2708 BKN020 PROB40 2708/2718 -SHRA FEW015TCU

May-27@
00:00 UTC

May-27 @ 00:00 UTC

May-27@
06:00 UTC

May-27 @ 06:00 UTC

TAF AMD EKBI 270004Z 2700/2724 25010KT 9999 BKN012
Wind
  • 250° at 10 KTS
Cloud Levels
  • Broken at 1,200' AGL

May-27@
00:00 UTC

May-27 @ 00:00 UTC

May-27@
06:00 UTC

May-27 @ 06:00 UTC

TEMPO 2700/2706 2000 BR OVC004

Temporary

Temporary Changes expected for less than half the time period

Conditions
Mist
Cloud Levels
  • Overcast at 400' AGL

May-27@
06:00 UTC

May-27 @ 06:00 UTC

May-28@
00:00 UTC

May-28 @ 00:00 UTC

BECMG 2706/2708 BKN020

Becoming

Becoming Conditions expected by Mon, May 27, 2019 @ 08:00 UTC

Wind
  • 250° at 10 KTS
Cloud Levels
  • Broken at 2,000' AGL

May-27@
08:00 UTC

May-27 @ 08:00 UTC

May-27@
18:00 UTC

May-27 @ 18:00 UTC

PROB40 2708/2718 -SHRA FEW015TCU

Probable - 40% Likelihood

Probable - 40% Likelihood during this time.

Conditions
Light Rain
Cloud Levels
  • Few at 1,500' AGL